sensor_id;sensor_type;location;lat;lon;timestamp;temperature;humidity
73777;DHT22;62088;50.240;2.696;2022-07-23T00:00:19;16.90;77.00
73777;DHT22;62088;50.240;2.696;2022-07-23T00:02:46;16.90;77.00
73777;DHT22;62088;50.240;2.696;2022-07-23T00:05:14;16.90;77.00
73777;DHT22;62088;50.240;2.696;2022-07-23T00:07:41;16.90;77.10
73777;DHT22;62088;50.240;2.696;2022-07-23T00:10:08;16.90;77.10
73777;DHT22;62088;50.240;2.696;2022-07-23T00:12:36;16.90;77.10
73777;DHT22;62088;50.240;2.696;2022-07-23T00:15:16;16.90;77.00
73777;DHT22;62088;50.240;2.696;2022-07-23T00:17:42;16.90;77.10
73777;DHT22;62088;50.240;2.696;2022-07-23T00:20:10;16.80;77.10
73777;DHT22;62088;50.240;2.696;2022-07-23T00:22:54;16.80;77.00
73777;DHT22;62088;50.240;2.696;2022-07-23T00:25:23;16.80;77.00
73777;DHT22;62088;50.240;2.696;2022-07-23T00:27:55;16.70;77.00
73777;DHT22;62088;50.240;2.696;2022-07-23T00:30:22;16.70;77.00
73777;DHT22;62088;50.240;2.696;2022-07-23T00:32:53;16.70;77.10
73777;DHT22;62088;50.240;2.696;2022-07-23T00:35:24;16.70;77.20
73777;DHT22;62088;50.240;2.696;2022-07-23T00:37:52;16.70;77.30
73777;DHT22;62088;50.240;2.696;2022-07-23T00:40:19;16.60;77.40
73777;DHT22;62088;50.240;2.696;2022-07-23T00:42:46;16.60;77.40
73777;DHT22;62088;50.240;2.696;2022-07-23T00:45:13;16.60;77.30
73777;DHT22;62088;50.240;2.696;2022-07-23T00:47:40;16.60;77.30
73777;DHT22;62088;50.240;2.696;2022-07-23T00:50:09;16.60;77.30
73777;DHT22;62088;50.240;2.696;2022-07-23T00:52:37;16.60;77.20
73777;DHT22;62088;50.240;2.696;2022-07-23T00:55:05;16.50;77.20
73777;DHT22;62088;50.240;2.696;2022-07-23T00:57:33;16.50;77.20
73777;DHT22;62088;50.240;2.696;2022-07-23T01:00:00;16.50;77.10
73777;DHT22;62088;50.240;2.696;2022-07-23T01:02:27;16.50;77.00
73777;DHT22;62088;50.240;2.696;2022-07-23T01:04:54;16.40;77.00
73777;DHT22;62088;50.240;2.696;2022-07-23T01:07:22;16.40;76.90
73777;DHT22;62088;50.240;2.696;2022-07-23T01:09:51;16.40;77.00
73777;DHT22;62088;50.240;2.696;2022-07-23T01:12:18;16.40;77.10
73777;DHT22;62088;50.240;2.696;2022-07-23T01:14:45;16.40;77.20
73777;DHT22;62088;50.240;2.696;2022-07-23T01:17:19;16.40;77.30
73777;DHT22;62088;50.240;2.696;2022-07-23T01:19:46;16.40;77.30
73777;DHT22;62088;50.240;2.696;2022-07-23T01:22:15;16.40;77.20
73777;DHT22;62088;50.240;2.696;2022-07-23T01:24:44;16.30;77.20
73777;DHT22;62088;50.240;2.696;2022-07-23T01:27:11;16.30;77.30
73777;DHT22;62088;50.240;2.696;2022-07-23T01:29:40;16.30;77.30
73777;DHT22;62088;50.240;2.696;2022-07-23T01:32:13;16.30;77.20
73777;DHT22;62088;50.240;2.696;2022-07-23T01:34:40;16.30;77.10
73777;DHT22;62088;50.240;2.696;2022-07-23T01:37:07;16.30;77.10
73777;DHT22;62088;50.240;2.696;2022-07-23T01:39:35;16.20;77.20
73777;DHT22;62088;50.240;2.696;2022-07-23T01:42:02;16.20;77.30
73777;DHT22;62088;50.240;2.696;2022-07-23T01:44:30;16.20;77.20
73777;DHT22;62088;50.240;2.696;2022-07-23T01:47:01;16.20;77.20
73777;DHT22;62088;50.240;2.696;2022-07-23T01:49:28;16.20;77.30
73777;DHT22;62088;50.240;2.696;2022-07-23T01:51:58;16.10;77.30
73777;DHT22;62088;50.240;2.696;2022-07-23T01:54:48;16.10;77.40
73777;DHT22;62088;50.240;2.696;2022-07-23T01:57:16;16.10;77.50
73777;DHT22;62088;50.240;2.696;2022-07-23T01:59:44;16.10;77.60
73777;DHT22;62088;50.240;2.696;2022-07-23T02:02:12;16.00;77.60
73777;DHT22;62088;50.240;2.696;2022-07-23T02:04:39;16.10;77.60
73777;DHT22;62088;50.240;2.696;2022-07-23T02:07:06;16.00;77.50
73777;DHT22;62088;50.240;2.696;2022-07-23T02:09:33;16.00;77.40
73777;DHT22;62088;50.240;2.696;2022-07-23T02:12:01;15.90;77.30
73777;DHT22;62088;50.240;2.696;2022-07-23T02:14:30;16.00;77.20
73777;DHT22;62088;50.240;2.696;2022-07-23T02:16:58;15.90;77.20
73777;DHT22;62088;50.240;2.696;2022-07-23T02:19:25;15.90;77.20
73777;DHT22;62088;50.240;2.696;2022-07-23T02:21:52;15.90;77.20
73777;DHT22;62088;50.240;2.696;2022-07-23T02:24:21;15.90;77.30
73777;DHT22;62088;50.240;2.696;2022-07-23T02:26:48;15.90;77.40
73777;DHT22;62088;50.240;2.696;2022-07-23T02:29:15;15.80;77.40
73777;DHT22;62088;50.240;2.696;2022-07-23T02:31:42;15.90;77.50
73777;DHT22;62088;50.240;2.696;2022-07-23T02:34:09;15.90;77.50
73777;DHT22;62088;50.240;2.696;2022-07-23T02:36:39;15.90;77.60
73777;DHT22;62088;50.240;2.696;2022-07-23T02:39:07;15.80;77.70
73777;DHT22;62088;50.240;2.696;2022-07-23T02:41:35;15.80;77.80
73777;DHT22;62088;50.240;2.696;2022-07-23T02:44:03;15.80;77.90
73777;DHT22;62088;50.240;2.696;2022-07-23T02:46:30;15.80;78.00
73777;DHT22;62088;50.240;2.696;2022-07-23T02:48:58;15.80;78.00
73777;DHT22;62088;50.240;2.696;2022-07-23T02:51:26;15.80;78.10
73777;DHT22;62088;50.240;2.696;2022-07-23T02:53:57;15.80;78.10
73777;DHT22;62088;50.240;2.696;2022-07-23T02:56:24;15.80;78.20
73777;DHT22;62088;50.240;2.696;2022-07-23T02:58:51;15.80;78.30
73777;DHT22;62088;50.240;2.696;2022-07-23T03:01:21;15.80;78.30
73777;DHT22;62088;50.240;2.696;2022-07-23T03:03:48;15.80;78.30
73777;DHT22;62088;50.240;2.696;2022-07-23T03:06:15;15.80;78.50
73777;DHT22;62088;50.240;2.696;2022-07-23T03:08:42;15.80;78.50
73777;DHT22;62088;50.240;2.696;2022-07-23T03:11:09;15.80;78.60
73777;DHT22;62088;50.240;2.696;2022-07-23T03:13:39;15.90;78.70
73777;DHT22;62088;50.240;2.696;2022-07-23T03:16:06;15.80;78.70
73777;DHT22;62088;50.240;2.696;2022-07-23T03:18:36;15.80;78.80
73777;DHT22;62088;50.240;2.696;2022-07-23T03:21:08;15.90;78.70
73777;DHT22;62088;50.240;2.696;2022-07-23T03:23:36;15.80;78.60
73777;DHT22;62088;50.240;2.696;2022-07-23T03:26:03;15.90;78.50
73777;DHT22;62088;50.240;2.696;2022-07-23T03:28:30;15.80;78.50
73777;DHT22;62088;50.240;2.696;2022-07-23T03:30:58;15.80;78.50
73777;DHT22;62088;50.240;2.696;2022-07-23T03:33:25;15.80;78.50
73777;DHT22;62088;50.240;2.696;2022-07-23T03:35:53;15.80;78.50
73777;DHT22;62088;50.240;2.696;2022-07-23T03:38:24;15.80;78.60
73777;DHT22;62088;50.240;2.696;2022-07-23T03:40:52;15.80;78.60
73777;DHT22;62088;50.240;2.696;2022-07-23T03:43:19;15.80;78.70
73777;DHT22;62088;50.240;2.696;2022-07-23T03:45:47;15.70;78.80
73777;DHT22;62088;50.240;2.696;2022-07-23T03:48:14;15.80;78.80
73777;DHT22;62088;50.240;2.696;2022-07-23T03:50:43;15.70;78.80
73777;DHT22;62088;50.240;2.696;2022-07-23T03:53:10;15.70;78.90
73777;DHT22;62088;50.240;2.696;2022-07-23T03:55:37;15.70;79.00
73777;DHT22;62088;50.240;2.696;2022-07-23T03:58:04;15.80;79.00
73777;DHT22;62088;50.240;2.696;2022-07-23T04:00:31;15.80;79.00
73777;DHT22;62088;50.240;2.696;2022-07-23T04:02:58;15.70;79.10
73777;DHT22;62088;50.240;2.696;2022-07-23T04:05:26;15.80;79.20
73777;DHT22;62088;50.240;2.696;2022-07-23T04:08:02;15.80;79.20
73777;DHT22;62088;50.240;2.696;2022-07-23T04:10:30;15.80;79.30
73777;DHT22;62088;50.240;2.696;2022-07-23T04:12:57;15.80;79.30
73777;DHT22;62088;50.240;2.696;2022-07-23T04:15:24;15.80;79.30
73777;DHT22;62088;50.240;2.696;2022-07-23T04:17:51;15.80;79.40
73777;DHT22;62088;50.240;2.696;2022-07-23T04:20:19;15.90;79.40
73777;DHT22;62088;50.240;2.696;2022-07-23T04:22:53;15.90;79.40
73777;DHT22;62088;50.240;2.696;2022-07-23T04:25:21;15.90;79.50
73777;DHT22;62088;50.240;2.696;2022-07-23T04:27:49;15.90;79.50
73777;DHT22;62088;50.240;2.696;2022-07-23T04:30:16;15.90;79.50
73777;DHT22;62088;50.240;2.696;2022-07-23T04:32:43;15.90;79.50
73777;DHT22;62088;50.240;2.696;2022-07-23T04:35:20;15.90;79.50
73777;DHT22;62088;50.240;2.696;2022-07-23T04:37:50;15.90;79.60
73777;DHT22;62088;50.240;2.696;2022-07-23T04:40:18;15.90;79.60
73777;DHT22;62088;50.240;2.696;2022-07-23T04:42:45;15.90;79.60
73777;DHT22;62088;50.240;2.696;2022-07-23T04:45:12;15.90;79.70
73777;DHT22;62088;50.240;2.696;2022-07-23T04:47:41;15.90;79.70
73777;DHT22;62088;50.240;2.696;2022-07-23T04:50:08;15.90;79.80
73777;DHT22;62088;50.240;2.696;2022-07-23T04:52:38;15.90;79.90
73777;DHT22;62088;50.240;2.696;2022-07-23T04:55:05;15.90;79.90
73777;DHT22;62088;50.240;2.696;2022-07-23T04:57:33;15.90;80.00
73777;DHT22;62088;50.240;2.696;2022-07-23T05:00:00;15.90;80.00
73777;DHT22;62088;50.240;2.696;2022-07-23T05:02:27;16.00;80.00
73777;DHT22;62088;50.240;2.696;2022-07-23T05:04:55;16.00;80.10
73777;DHT22;62088;50.240;2.696;2022-07-23T05:07:22;16.00;80.10
73777;DHT22;62088;50.240;2.696;2022-07-23T05:09:49;16.00;80.20
73777;DHT22;62088;50.240;2.696;2022-07-23T05:12:16;16.00;80.10
73777;DHT22;62088;50.240;2.696;2022-07-23T05:14:44;16.00;80.20
73777;DHT22;62088;50.240;2.696;2022-07-23T05:17:11;16.10;80.20
73777;DHT22;62088;50.240;2.696;2022-07-23T05:19:38;16.10;80.30
73777;DHT22;62088;50.240;2.696;2022-07-23T05:22:05;16.10;80.30
73777;DHT22;62088;50.240;2.696;2022-07-23T05:24:32;16.10;80.40
73777;DHT22;62088;50.240;2.696;2022-07-23T05:26:59;16.10;80.50
73777;DHT22;62088;50.240;2.696;2022-07-23T05:29:26;16.20;80.60
73777;DHT22;62088;50.240;2.696;2022-07-23T05:31:54;16.20;80.70
73777;DHT22;62088;50.240;2.696;2022-07-23T05:34:22;16.20;80.70
73777;DHT22;62088;50.240;2.696;2022-07-23T05:36:49;16.20;80.80
73777;DHT22;62088;50.240;2.696;2022-07-23T05:39:16;16.30;80.90
73777;DHT22;62088;50.240;2.696;2022-07-23T05:41:43;16.30;80.90
73777;DHT22;62088;50.240;2.696;2022-07-23T05:44:10;16.30;80.90
73777;DHT22;62088;50.240;2.696;2022-07-23T05:46:40;16.30;81.00
73777;DHT22;62088;50.240;2.696;2022-07-23T05:49:10;16.40;81.10
73777;DHT22;62088;50.240;2.696;2022-07-23T05:51:54;16.40;81.10
73777;DHT22;62088;50.240;2.696;2022-07-23T05:54:33;16.40;81.10
73777;DHT22;62088;50.240;2.696;2022-07-23T05:57:01;16.50;81.20
73777;DHT22;62088;50.240;2.696;2022-07-23T05:59:28;16.50;81.20
73777;DHT22;62088;50.240;2.696;2022-07-23T06:01:55;16.50;81.20
73777;DHT22;62088;50.240;2.696;2022-07-23T06:04:22;16.60;81.20
73777;DHT22;62088;50.240;2.696;2022-07-23T06:07:07;16.60;81.20
73777;DHT22;62088;50.240;2.696;2022-07-23T06:09:34;16.70;81.20
73777;DHT22;62088;50.240;2.696;2022-07-23T06:12:01;16.70;81.20
73777;DHT22;62088;50.240;2.696;2022-07-23T06:14:29;16.80;81.30
73777;DHT22;62088;50.240;2.696;2022-07-23T06:16:58;16.80;81.30
73777;DHT22;62088;50.240;2.696;2022-07-23T06:19:26;16.90;81.50
73777;DHT22;62088;50.240;2.696;2022-07-23T06:21:53;16.90;81.50
73777;DHT22;62088;50.240;2.696;2022-07-23T06:24:20;16.90;81.60
73777;DHT22;62088;50.240;2.696;2022-07-23T06:26:48;17.00;81.70
73777;DHT22;62088;50.240;2.696;2022-07-23T06:29:15;17.00;81.80
73777;DHT22;62088;50.240;2.696;2022-07-23T06:31:43;17.10;82.00
73777;DHT22;62088;50.240;2.696;2022-07-23T06:34:13;17.20;82.20
73777;DHT22;62088;50.240;2.696;2022-07-23T06:36:40;17.20;82.20
73777;DHT22;62088;50.240;2.696;2022-07-23T06:39:08;17.30;82.20
73777;DHT22;62088;50.240;2.696;2022-07-23T06:41:36;17.40;82.00
73777;DHT22;62088;50.240;2.696;2022-07-23T06:44:03;17.40;81.90
73777;DHT22;62088;50.240;2.696;2022-07-23T06:46:34;17.40;81.80
73777;DHT22;62088;50.240;2.696;2022-07-23T06:49:01;17.40;81.70
73777;DHT22;62088;50.240;2.696;2022-07-23T06:51:32;17.50;81.50
73777;DHT22;62088;50.240;2.696;2022-07-23T06:54:00;17.50;81.50
73777;DHT22;62088;50.240;2.696;2022-07-23T06:56:28;17.50;81.60
73777;DHT22;62088;50.240;2.696;2022-07-23T06:58:55;17.60;81.60
73777;DHT22;62088;50.240;2.696;2022-07-23T07:01:21;17.60;81.70
73777;DHT22;62088;50.240;2.696;2022-07-23T07:03:49;17.70;81.80
73777;DHT22;62088;50.240;2.696;2022-07-23T07:06:16;17.80;81.90
73777;DHT22;62088;50.240;2.696;2022-07-23T07:08:43;17.80;81.90
73777;DHT22;62088;50.240;2.696;2022-07-23T07:11:10;17.90;81.90
73777;DHT22;62088;50.240;2.696;2022-07-23T07:13:38;17.90;81.90
73777;DHT22;62088;50.240;2.696;2022-07-23T07:16:05;17.90;81.80
73777;DHT22;62088;50.240;2.696;2022-07-23T07:18:32;18.00;81.80
73777;DHT22;62088;50.240;2.696;2022-07-23T07:20:59;18.10;81.70
73777;DHT22;62088;50.240;2.696;2022-07-23T07:23:26;18.10;81.60
73777;DHT22;62088;50.240;2.696;2022-07-23T07:25:53;18.20;81.50
73777;DHT22;62088;50.240;2.696;2022-07-23T07:28:20;18.20;81.40
73777;DHT22;62088;50.240;2.696;2022-07-23T07:30:47;18.30;81.30
73777;DHT22;62088;50.240;2.696;2022-07-23T07:33:14;18.40;81.10
73777;DHT22;62088;50.240;2.696;2022-07-23T07:35:41;18.40;81.00
73777;DHT22;62088;50.240;2.696;2022-07-23T07:38:09;18.40;81.10
73777;DHT22;62088;50.240;2.696;2022-07-23T07:40:36;18.50;81.20
73777;DHT22;62088;50.240;2.696;2022-07-23T07:43:03;18.60;81.30
73777;DHT22;62088;50.240;2.696;2022-07-23T07:45:30;18.60;81.20
73777;DHT22;62088;50.240;2.696;2022-07-23T07:47:57;18.70;81.20
73777;DHT22;62088;50.240;2.696;2022-07-23T07:50:24;18.70;81.20
73777;DHT22;62088;50.240;2.696;2022-07-23T07:52:52;18.80;81.20
73777;DHT22;62088;50.240;2.696;2022-07-23T07:55:19;18.90;81.10
73777;DHT22;62088;50.240;2.696;2022-07-23T07:57:46;19.00;80.90
73777;DHT22;62088;50.240;2.696;2022-07-23T08:00:16;19.10;80.60
73777;DHT22;62088;50.240;2.696;2022-07-23T08:02:51;19.20;80.60
73777;DHT22;62088;50.240;2.696;2022-07-23T08:05:24;19.30;80.50
73777;DHT22;62088;50.240;2.696;2022-07-23T08:07:55;19.40;80.30
73777;DHT22;62088;50.240;2.696;2022-07-23T08:10:24;19.40;80.20
73777;DHT22;62088;50.240;2.696;2022-07-23T08:12:54;19.50;80.00
73777;DHT22;62088;50.240;2.696;2022-07-23T08:15:23;19.60;79.80
73777;DHT22;62088;50.240;2.696;2022-07-23T08:17:50;19.70;79.90
73777;DHT22;62088;50.240;2.696;2022-07-23T08:20:19;19.80;79.80
73777;DHT22;62088;50.240;2.696;2022-07-23T08:22:49;19.90;79.70
73777;DHT22;62088;50.240;2.696;2022-07-23T08:25:22;20.00;79.70
73777;DHT22;62088;50.240;2.696;2022-07-23T08:27:50;20.20;79.60
73777;DHT22;62088;50.240;2.696;2022-07-23T08:30:18;20.30;79.40
73777;DHT22;62088;50.240;2.696;2022-07-23T08:32:50;20.40;79.10
73777;DHT22;62088;50.240;2.696;2022-07-23T08:35:22;20.60;78.70
73777;DHT22;62088;50.240;2.696;2022-07-23T08:37:49;20.70;78.20
73777;DHT22;62088;50.240;2.696;2022-07-23T08:40:16;20.80;77.90
73777;DHT22;62088;50.240;2.696;2022-07-23T08:42:48;20.90;77.70
73777;DHT22;62088;50.240;2.696;2022-07-23T08:45:20;21.10;77.40
73777;DHT22;62088;50.240;2.696;2022-07-23T08:47:57;21.30;77.20
73777;DHT22;62088;50.240;2.696;2022-07-23T08:50:29;21.40;76.60
73777;DHT22;62088;50.240;2.696;2022-07-23T08:52:58;21.40;76.00
73777;DHT22;62088;50.240;2.696;2022-07-23T08:55:25;21.60;75.50
73777;DHT22;62088;50.240;2.696;2022-07-23T08:57:53;21.70;75.00
73777;DHT22;62088;50.240;2.696;2022-07-23T09:00:21;21.80;74.00
73777;DHT22;62088;50.240;2.696;2022-07-23T09:02:49;21.90;73.10
73777;DHT22;62088;50.240;2.696;2022-07-23T09:05:18;21.90;72.00
73777;DHT22;62088;50.240;2.696;2022-07-23T09:08:05;22.00;71.30
73777;DHT22;62088;50.240;2.696;2022-07-23T09:15:54;22.20;71.40
73777;DHT22;62088;50.240;2.696;2022-07-23T09:18:36;22.30;71.20
73777;DHT22;62088;50.240;2.696;2022-07-23T09:21:14;22.40;71.20
73777;DHT22;62088;50.240;2.696;2022-07-23T09:26:38;22.60;71.20
73777;DHT22;62088;50.240;2.696;2022-07-23T09:29:20;22.80;70.70
73777;DHT22;62088;50.240;2.696;2022-07-23T09:31:57;22.90;70.50
73777;DHT22;62088;50.240;2.696;2022-07-23T09:34:30;23.10;70.20
73777;DHT22;62088;50.240;2.696;2022-07-23T09:37:16;23.20;69.50
73777;DHT22;62088;50.240;2.696;2022-07-23T09:39:45;23.30;68.40
73777;DHT22;62088;50.240;2.696;2022-07-23T09:42:24;23.40;68.00
73777;DHT22;62088;50.240;2.696;2022-07-23T09:44:56;23.60;68.20
73777;DHT22;62088;50.240;2.696;2022-07-23T09:47:27;23.70;68.30
73777;DHT22;62088;50.240;2.696;2022-07-23T09:50:08;23.90;67.70
73777;DHT22;62088;50.240;2.696;2022-07-23T09:52:43;24.00;67.10
73777;DHT22;62088;50.240;2.696;2022-07-23T09:55:10;24.10;64.70
73777;DHT22;62088;50.240;2.696;2022-07-23T09:57:38;24.10;65.10
73777;DHT22;62088;50.240;2.696;2022-07-23T10:00:08;24.30;65.10
73777;DHT22;62088;50.240;2.696;2022-07-23T10:02:38;24.40;64.90
73777;DHT22;62088;50.240;2.696;2022-07-23T10:05:25;24.40;65.00
73777;DHT22;62088;50.240;2.696;2022-07-23T10:08:18;24.50;64.90
73777;DHT22;62088;50.240;2.696;2022-07-23T10:11:04;24.60;64.60
73777;DHT22;62088;50.240;2.696;2022-07-23T10:13:46;24.70;63.80
73777;DHT22;62088;50.240;2.696;2022-07-23T10:16:37;24.80;64.20
73777;DHT22;62088;50.240;2.696;2022-07-23T10:19:05;24.80;64.00
73777;DHT22;62088;50.240;2.696;2022-07-23T10:22:09;25.00;64.00
73777;DHT22;62088;50.240;2.696;2022-07-23T10:38:24;25.80;63.40
73777;DHT22;62088;50.240;2.696;2022-07-23T10:41:01;25.90;62.50
73777;DHT22;62088;50.240;2.696;2022-07-23T10:43:29;26.00;60.90
73777;DHT22;62088;50.240;2.696;2022-07-23T10:46:25;26.10;60.70
73777;DHT22;62088;50.240;2.696;2022-07-23T10:49:28;26.20;60.80
73777;DHT22;62088;50.240;2.696;2022-07-23T10:54:49;26.40;60.30
73777;DHT22;62088;50.240;2.696;2022-07-23T10:57:24;26.50;60.50
73777;DHT22;62088;50.240;2.696;2022-07-23T11:02:42;26.70;59.60
73777;DHT22;62088;50.240;2.696;2022-07-23T11:05:12;26.70;59.60
73777;DHT22;62088;50.240;2.696;2022-07-23T11:13:26;26.80;60.00
73777;DHT22;62088;50.240;2.696;2022-07-23T11:24:17;27.00;58.20
73777;DHT22;62088;50.240;2.696;2022-07-23T11:26:54;27.00;58.20
73777;DHT22;62088;50.240;2.696;2022-07-23T11:32:01;27.10;59.10
73777;DHT22;62088;50.240;2.696;2022-07-23T11:34:33;27.20;59.50
73777;DHT22;62088;50.240;2.696;2022-07-23T11:37:02;27.30;59.60
73777;DHT22;62088;50.240;2.696;2022-07-23T11:39:30;27.40;59.20
73777;DHT22;62088;50.240;2.696;2022-07-23T11:41:58;27.50;58.60
73777;DHT22;62088;50.240;2.696;2022-07-23T11:44:34;27.70;57.80
73777;DHT22;62088;50.240;2.696;2022-07-23T11:47:04;27.80;57.10
73777;DHT22;62088;50.240;2.696;2022-07-23T11:49:32;27.90;56.30
73777;DHT22;62088;50.240;2.696;2022-07-23T11:52:06;27.90;56.40
73777;DHT22;62088;50.240;2.696;2022-07-23T11:54:54;28.10;56.40
73777;DHT22;62088;50.240;2.696;2022-07-23T11:57:25;28.20;55.90
73777;DHT22;62088;50.240;2.696;2022-07-23T11:59:56;28.30;55.70
73777;DHT22;62088;50.240;2.696;2022-07-23T12:02:24;28.30;55.80
73777;DHT22;62088;50.240;2.696;2022-07-23T12:04:53;28.40;55.40
73777;DHT22;62088;50.240;2.696;2022-07-23T12:09:51;28.40;54.40
73777;DHT22;62088;50.240;2.696;2022-07-23T12:12:19;28.40;54.50
73777;DHT22;62088;50.240;2.696;2022-07-23T12:14:53;28.40;53.70
73777;DHT22;62088;50.240;2.696;2022-07-23T12:17:24;28.40;53.90
73777;DHT22;62088;50.240;2.696;2022-07-23T12:19:54;28.30;53.70
73777;DHT22;62088;50.240;2.696;2022-07-23T12:22:23;28.20;53.80
73777;DHT22;62088;50.240;2.696;2022-07-23T12:24:55;28.20;54.30
73777;DHT22;62088;50.240;2.696;2022-07-23T12:27:22;28.20;54.60
73777;DHT22;62088;50.240;2.696;2022-07-23T12:29:50;28.20;54.60
73777;DHT22;62088;50.240;2.696;2022-07-23T12:32:25;28.30;54.70
73777;DHT22;62088;50.240;2.696;2022-07-23T12:35:07;28.30;55.00
73777;DHT22;62088;50.240;2.696;2022-07-23T12:37:42;28.40;55.30
73777;DHT22;62088;50.240;2.696;2022-07-23T12:40:23;28.50;55.30
73777;DHT22;62088;50.240;2.696;2022-07-23T12:43:42;28.70;55.10
73777;DHT22;62088;50.240;2.696;2022-07-23T12:45:54;28.80;54.50
73777;DHT22;62088;50.240;2.696;2022-07-23T12:48:29;28.80;53.90
73777;DHT22;62088;50.240;2.696;2022-07-23T12:51:04;28.90;53.80
73777;DHT22;62088;50.240;2.696;2022-07-23T12:53:42;28.90;53.80
73777;DHT22;62088;50.240;2.696;2022-07-23T12:56:13;28.80;53.40
73777;DHT22;62088;50.240;2.696;2022-07-23T12:58:50;28.80;53.40
73777;DHT22;62088;50.240;2.696;2022-07-23T13:06:30;28.60;53.50
73777;DHT22;62088;50.240;2.696;2022-07-23T13:08:58;28.60;52.30
73777;DHT22;62088;50.240;2.696;2022-07-23T13:11:27;28.60;53.10
73777;DHT22;62088;50.240;2.696;2022-07-23T13:13:57;28.50;53.30
73777;DHT22;62088;50.240;2.696;2022-07-23T13:16:24;28.50;53.30
73777;DHT22;62088;50.240;2.696;2022-07-23T13:18:54;28.40;53.40
73777;DHT22;62088;50.240;2.696;2022-07-23T13:21:25;28.30;53.60
73777;DHT22;62088;50.240;2.696;2022-07-23T13:23:53;28.30;53.60
73777;DHT22;62088;50.240;2.696;2022-07-23T13:26:21;28.20;53.80
73777;DHT22;62088;50.240;2.696;2022-07-23T13:28:48;28.20;54.40
73777;DHT22;62088;50.240;2.696;2022-07-23T13:31:17;28.20;55.00
73777;DHT22;62088;50.240;2.696;2022-07-23T13:33:44;28.30;55.10
73777;DHT22;62088;50.240;2.696;2022-07-23T13:36:14;28.30;54.80
73777;DHT22;62088;50.240;2.696;2022-07-23T13:38:41;28.40;54.50
73777;DHT22;62088;50.240;2.696;2022-07-23T13:41:09;28.60;54.40
73777;DHT22;62088;50.240;2.696;2022-07-23T13:43:38;28.80;54.40
73777;DHT22;62088;50.240;2.696;2022-07-23T13:46:06;28.90;54.10
73777;DHT22;62088;50.240;2.696;2022-07-23T13:48:34;29.10;53.30
73777;DHT22;62088;50.240;2.696;2022-07-23T13:51:01;29.30;52.60
73777;DHT22;62088;50.240;2.696;2022-07-23T13:53:28;29.40;51.90
73777;DHT22;62088;50.240;2.696;2022-07-23T13:55:55;29.50;51.90
73777;DHT22;62088;50.240;2.696;2022-07-23T13:58:24;29.70;51.70
73777;DHT22;62088;50.240;2.696;2022-07-23T14:00:53;29.80;51.50
73777;DHT22;62088;50.240;2.696;2022-07-23T14:03:21;30.00;51.40
73777;DHT22;62088;50.240;2.696;2022-07-23T14:05:53;30.20;51.10
73777;DHT22;62088;50.240;2.696;2022-07-23T14:08:23;30.30;50.70
73777;DHT22;62088;50.240;2.696;2022-07-23T14:10:50;30.30;50.30
73777;DHT22;62088;50.240;2.696;2022-07-23T14:13:17;30.30;50.10
73777;DHT22;62088;50.240;2.696;2022-07-23T14:15:47;30.30;50.00
73777;DHT22;62088;50.240;2.696;2022-07-23T14:18:16;30.30;49.70
73777;DHT22;62088;50.240;2.696;2022-07-23T14:20:43;30.20;49.70
73777;DHT22;62088;50.240;2.696;2022-07-23T14:23:10;30.10;49.30
73777;DHT22;62088;50.240;2.696;2022-07-23T14:25:39;30.00;49.40
73777;DHT22;62088;50.240;2.696;2022-07-23T14:28:06;29.90;49.60
73777;DHT22;62088;50.240;2.696;2022-07-23T14:30:35;29.80;50.10
73777;DHT22;62088;50.240;2.696;2022-07-23T14:33:02;29.80;50.80
73777;DHT22;62088;50.240;2.696;2022-07-23T14:35:29;29.80;50.90
73777;DHT22;62088;50.240;2.696;2022-07-23T14:37:56;29.70;50.50
73777;DHT22;62088;50.240;2.696;2022-07-23T14:40:23;29.70;50.30
73777;DHT22;62088;50.240;2.696;2022-07-23T14:42:50;29.80;50.40
73777;DHT22;62088;50.240;2.696;2022-07-23T14:45:17;29.90;50.10
73777;DHT22;62088;50.240;2.696;2022-07-23T14:47:46;29.90;50.10
73777;DHT22;62088;50.240;2.696;2022-07-23T14:50:14;30.00;50.20
73777;DHT22;62088;50.240;2.696;2022-07-23T14:52:41;30.20;50.70
73777;DHT22;62088;50.240;2.696;2022-07-23T14:55:08;30.30;50.60
73777;DHT22;62088;50.240;2.696;2022-07-23T14:57:36;30.40;50.30
73777;DHT22;62088;50.240;2.696;2022-07-23T15:00:06;30.40;50.30
73777;DHT22;62088;50.240;2.696;2022-07-23T15:02:35;30.40;50.10
73777;DHT22;62088;50.240;2.696;2022-07-23T15:05:03;30.40;50.10
73777;DHT22;62088;50.240;2.696;2022-07-23T15:07:50;30.40;50.40
73777;DHT22;62088;50.240;2.696;2022-07-23T15:10:17;30.40;50.30
73777;DHT22;62088;50.240;2.696;2022-07-23T15:12:48;30.40;49.50
73777;DHT22;62088;50.240;2.696;2022-07-23T15:15:16;30.40;49.40
73777;DHT22;62088;50.240;2.696;2022-07-23T15:17:44;30.30;49.50
73777;DHT22;62088;50.240;2.696;2022-07-23T15:20:12;30.20;50.00
73777;DHT22;62088;50.240;2.696;2022-07-23T15:22:44;30.10;50.70
73777;DHT22;62088;50.240;2.696;2022-07-23T15:25:14;30.00;50.80
73777;DHT22;62088;50.240;2.696;2022-07-23T15:27:42;29.90;50.30
73777;DHT22;62088;50.240;2.696;2022-07-23T15:30:09;29.80;51.10
73777;DHT22;62088;50.240;2.696;2022-07-23T15:32:36;29.70;51.60
73777;DHT22;62088;50.240;2.696;2022-07-23T15:35:04;29.70;52.00
73777;DHT22;62088;50.240;2.696;2022-07-23T15:37:35;29.60;52.30
73777;DHT22;62088;50.240;2.696;2022-07-23T15:40:03;29.60;52.50
73777;DHT22;62088;50.240;2.696;2022-07-23T15:42:39;29.50;52.70
73777;DHT22;62088;50.240;2.696;2022-07-23T15:45:07;29.50;52.70
73777;DHT22;62088;50.240;2.696;2022-07-23T15:47:36;29.40;52.30
73777;DHT22;62088;50.240;2.696;2022-07-23T15:50:04;29.30;52.70
73777;DHT22;62088;50.240;2.696;2022-07-23T15:52:31;29.30;52.90
73777;DHT22;62088;50.240;2.696;2022-07-23T15:54:59;29.20;53.00
73777;DHT22;62088;50.240;2.696;2022-07-23T15:57:26;29.10;53.20
73777;DHT22;62088;50.240;2.696;2022-07-23T15:59:54;29.10;53.00
73777;DHT22;62088;50.240;2.696;2022-07-23T16:02:23;29.10;53.30
73777;DHT22;62088;50.240;2.696;2022-07-23T16:04:53;28.90;53.50
73777;DHT22;62088;50.240;2.696;2022-07-23T16:07:20;28.90;53.60
73777;DHT22;62088;50.240;2.696;2022-07-23T16:09:47;29.00;53.50
73777;DHT22;62088;50.240;2.696;2022-07-23T16:12:14;29.00;53.40
73777;DHT22;62088;50.240;2.696;2022-07-23T16:14:42;28.90;53.60
73777;DHT22;62088;50.240;2.696;2022-07-23T16:17:09;28.80;52.60
73777;DHT22;62088;50.240;2.696;2022-07-23T16:19:36;28.80;52.90
73777;DHT22;62088;50.240;2.696;2022-07-23T16:22:05;28.80;53.30
73777;DHT22;62088;50.240;2.696;2022-07-23T16:24:32;28.80;53.40
73777;DHT22;62088;50.240;2.696;2022-07-23T16:26:59;28.80;53.10
73777;DHT22;62088;50.240;2.696;2022-07-23T16:29:32;28.70;53.10
73777;DHT22;62088;50.240;2.696;2022-07-23T16:31:59;28.60;53.30
73777;DHT22;62088;50.240;2.696;2022-07-23T16:34:26;28.60;53.50
73777;DHT22;62088;50.240;2.696;2022-07-23T16:36:53;28.50;53.50